sensor_id;sensor_type;location;lat;lon;timestamp;pressure;altitude;pressure_sealevel;temperature;humidity
10992;BME280;5549;47.028;15.514;2023-05-19T00:00:12;97138.34;;;13.44;62.39
10992;BME280;5549;47.028;15.514;2023-05-19T00:02:41;97140.28;;;13.42;62.62
10992;BME280;5549;47.028;15.514;2023-05-19T00:05:10;97140.81;;;13.36;62.55
10992;BME280;5549;47.028;15.514;2023-05-19T00:07:43;97135.78;;;13.33;62.68
10992;BME280;5549;47.028;15.514;2023-05-19T00:10:17;97137.47;;;13.34;62.78
10992;BME280;5549;47.028;15.514;2023-05-19T00:12:46;97131.09;;;13.36;62.51
10992;BME280;5549;47.028;15.514;2023-05-19T00:15:17;97132.06;;;13.35;62.12
10992;BME280;5549;47.028;15.514;2023-05-19T00:17:45;97127.56;;;13.26;62.67
10992;BME280;5549;47.028;15.514;2023-05-19T00:20:15;97131.31;;;13.24;63.15
10992;BME280;5549;47.028;15.514;2023-05-19T00:22:42;97131.69;;;13.19;63.61
10992;BME280;5549;47.028;15.514;2023-05-19T00:25:13;97122.97;;;13.19;63.81
10992;BME280;5549;47.028;15.514;2023-05-19T00:27:41;97121.84;;;13.21;63.63
10992;BME280;5549;47.028;15.514;2023-05-19T00:30:09;97122.69;;;13.22;63.55
10992;BME280;5549;47.028;15.514;2023-05-19T00:32:37;97118.97;;;13.24;63.22
10992;BME280;5549;47.028;15.514;2023-05-19T00:35:08;97120.22;;;13.30;63.22
10992;BME280;5549;47.028;15.514;2023-05-19T00:37:37;97124.28;;;13.34;63.41
10992;BME280;5549;47.028;15.514;2023-05-19T00:40:07;97116.22;;;13.35;63.64
10992;BME280;5549;47.028;15.514;2023-05-19T00:42:36;97117.78;;;13.38;63.09
10992;BME280;5549;47.028;15.514;2023-05-19T00:45:07;97121.09;;;13.40;62.80
10992;BME280;5549;47.028;15.514;2023-05-19T00:47:35;97124.44;;;13.42;62.62
10992;BME280;5549;47.028;15.514;2023-05-19T00:50:06;97124.44;;;13.42;62.34
10992;BME280;5549;47.028;15.514;2023-05-19T00:52:36;97120.00;;;13.42;62.64
10992;BME280;5549;47.028;15.514;2023-05-19T00:55:04;97120.84;;;13.43;63.22
10992;BME280;5549;47.028;15.514;2023-05-19T00:57:37;97120.84;;;13.43;63.76
10992;BME280;5549;47.028;15.514;2023-05-19T01:00:10;97120.84;;;13.43;63.83
10992;BME280;5549;47.028;15.514;2023-05-19T01:02:38;97122.78;;;13.41;64.43
10992;BME280;5549;47.028;15.514;2023-05-19T01:05:09;97121.38;;;13.37;64.57
10992;BME280;5549;47.028;15.514;2023-05-19T01:07:37;97119.44;;;13.39;64.08
10992;BME280;5549;47.028;15.514;2023-05-19T01:10:06;97115.84;;;13.40;64.04
10992;BME280;5549;47.028;15.514;2023-05-19T01:12:37;97115.69;;;13.41;63.98
10992;BME280;5549;47.028;15.514;2023-05-19T01:15:08;97113.91;;;13.42;64.55
10992;BME280;5549;47.028;15.514;2023-05-19T01:17:41;97115.84;;;13.40;65.08
10992;BME280;5549;47.028;15.514;2023-05-19T01:20:19;97117.50;;;13.41;65.44
10992;BME280;5549;47.028;15.514;2023-05-19T01:23:19;97114.88;;;13.41;65.05
10992;BME280;5549;47.028;15.514;2023-05-19T01:26:44;97117.38;;;13.42;64.83
10992;BME280;5549;47.028;15.514;2023-05-19T01:29:34;97118.34;;;13.41;65.72
10992;BME280;5549;47.028;15.514;2023-05-19T01:32:11;97113.31;;;13.38;66.26
10992;BME280;5549;47.028;15.514;2023-05-19T01:34:44;97118.28;;;13.32;65.65
10992;BME280;5549;47.028;15.514;2023-05-19T01:37:14;97117.34;;;13.33;65.51
10992;BME280;5549;47.028;15.514;2023-05-19T01:39:44;97110.38;;;13.32;65.54
10992;BME280;5549;47.028;15.514;2023-05-19T01:42:14;97108.72;;;13.31;66.02
10992;BME280;5549;47.028;15.514;2023-05-19T01:44:44;97111.09;;;13.34;66.33
10992;BME280;5549;47.028;15.514;2023-05-19T01:47:22;97111.09;;;13.34;66.39
10992;BME280;5549;47.028;15.514;2023-05-19T01:49:53;97110.00;;;13.36;66.65
10992;BME280;5549;47.028;15.514;2023-05-19T01:52:32;97109.16;;;13.36;66.40
10992;BME280;5549;47.028;15.514;2023-05-19T01:55:00;97106.78;;;13.33;66.40
10992;BME280;5549;47.028;15.514;2023-05-19T01:57:38;97110.50;;;13.30;65.52
10992;BME280;5549;47.028;15.514;2023-05-19T02:00:20;97113.38;;;13.18;65.04
10992;BME280;5549;47.028;15.514;2023-05-19T02:03:15;97106.44;;;13.16;65.19
10992;BME280;5549;47.028;15.514;2023-05-19T02:05:55;97112.28;;;13.20;65.90
10992;BME280;5549;47.028;15.514;2023-05-19T02:08:30;97101.84;;;13.19;67.59
10992;BME280;5549;47.028;15.514;2023-05-19T02:11:06;97110.97;;;13.14;68.06
10992;BME280;5549;47.028;15.514;2023-05-19T02:13:36;97101.84;;;13.19;67.63
10992;BME280;5549;47.028;15.514;2023-05-19T02:16:07;97099.44;;;13.15;67.29
10992;BME280;5549;47.028;15.514;2023-05-19T02:18:41;97097.28;;;13.21;66.68
10992;BME280;5549;47.028;15.514;2023-05-19T02:21:12;97087.09;;;13.16;65.79
10992;BME280;5549;47.028;15.514;2023-05-19T02:23:40;97097.66;;;13.16;65.05
10992;BME280;5549;47.028;15.514;2023-05-19T02:26:10;97097.56;;;13.18;64.56
10992;BME280;5549;47.028;15.514;2023-05-19T02:28:38;97095.16;;;13.14;64.71
10992;BME280;5549;47.028;15.514;2023-05-19T02:31:08;97105.59;;;12.95;65.38
10992;BME280;5549;47.028;15.514;2023-05-19T02:33:39;97103.66;;;12.97;65.58
10992;BME280;5549;47.028;15.514;2023-05-19T02:36:10;97104.81;;;13.04;65.38
10992;BME280;5549;47.028;15.514;2023-05-19T02:38:43;97102.97;;;12.95;65.69
10992;BME280;5549;47.028;15.514;2023-05-19T02:41:12;97099.22;;;12.98;65.81
10992;BME280;5549;47.028;15.514;2023-05-19T02:43:42;97097.44;;;12.98;66.08
10992;BME280;5549;47.028;15.514;2023-05-19T02:46:10;97091.44;;;12.96;66.16
10992;BME280;5549;47.028;15.514;2023-05-19T02:48:37;97095.00;;;12.85;66.14
10992;BME280;5549;47.028;15.514;2023-05-19T02:51:06;97096.00;;;12.94;65.81
10992;BME280;5549;47.028;15.514;2023-05-19T02:53:36;97093.13;;;12.97;65.21
10992;BME280;5549;47.028;15.514;2023-05-19T02:56:03;97084.25;;;12.98;64.76
10992;BME280;5549;47.028;15.514;2023-05-19T02:58:33;97084.75;;;12.92;64.79
10992;BME280;5549;47.028;15.514;2023-05-19T03:01:04;97087.53;;;12.91;64.93
10992;BME280;5549;47.028;15.514;2023-05-19T03:03:35;97077.50;;;12.84;64.88
10992;BME280;5549;47.028;15.514;2023-05-19T03:06:06;97076.16;;;12.90;64.92
10992;BME280;5549;47.028;15.514;2023-05-19T03:08:37;97079.22;;;12.95;65.39
10992;BME280;5549;47.028;15.514;2023-05-19T03:11:12;97079.22;;;12.95;66.13
10992;BME280;5549;47.028;15.514;2023-05-19T03:13:45;97079.50;;;12.92;67.18
10992;BME280;5549;47.028;15.514;2023-05-19T03:16:17;97087.41;;;12.92;67.20
10992;BME280;5549;47.028;15.514;2023-05-19T03:18:50;97084.75;;;12.92;66.94
10992;BME280;5549;47.028;15.514;2023-05-19T03:21:32;97087.28;;;12.94;67.28
10992;BME280;5549;47.028;15.514;2023-05-19T03:24:04;97084.50;;;12.95;67.16
10992;BME280;5549;47.028;15.514;2023-05-19T03:26:42;97079.94;;;12.97;67.13
10992;BME280;5549;47.028;15.514;2023-05-19T03:29:14;97086.75;;;13.00;68.00
10992;BME280;5549;47.028;15.514;2023-05-19T03:31:48;97080.91;;;12.96;68.11
10992;BME280;5549;47.028;15.514;2023-05-19T03:34:19;97087.13;;;12.95;68.12
10992;BME280;5549;47.028;15.514;2023-05-19T03:36:51;97079.22;;;12.95;68.16
10992;BME280;5549;47.028;15.514;2023-05-19T03:39:21;97084.75;;;12.92;68.18
10992;BME280;5549;47.028;15.514;2023-05-19T03:41:49;97096.97;;;12.93;68.13
10992;BME280;5549;47.028;15.514;2023-05-19T03:44:17;97094.34;;;12.93;68.56
10992;BME280;5549;47.028;15.514;2023-05-19T03:46:47;97102.81;;;12.97;68.78
10992;BME280;5549;47.028;15.514;2023-05-19T03:49:14;97098.66;;;12.94;68.93
10992;BME280;5549;47.028;15.514;2023-05-19T03:51:42;97091.00;;;12.91;69.47
10992;BME280;5549;47.028;15.514;2023-05-19T03:54:11;97095.44;;;12.91;69.35
10992;BME280;5549;47.028;15.514;2023-05-19T03:56:42;97098.28;;;12.78;70.42
10992;BME280;5549;47.028;15.514;2023-05-19T03:59:09;97103.56;;;12.78;70.43
10992;BME280;5549;47.028;15.514;2023-05-19T04:01:38;97102.72;;;12.77;70.91
10992;BME280;5549;47.028;15.514;2023-05-19T04:04:05;97105.72;;;12.73;71.21
10992;BME280;5549;47.028;15.514;2023-05-19T04:06:36;97104.38;;;12.58;72.55
10992;BME280;5549;47.028;15.514;2023-05-19T04:09:13;97112.34;;;12.67;71.67
10992;BME280;5549;47.028;15.514;2023-05-19T04:11:41;97110.56;;;12.68;71.72
10992;BME280;5549;47.028;15.514;2023-05-19T04:14:11;97108.88;;;12.67;71.99
10992;BME280;5549;47.028;15.514;2023-05-19T04:16:39;97113.91;;;12.70;71.52
10992;BME280;5549;47.028;15.514;2023-05-19T04:19:07;97110.03;;;12.74;71.62
10992;BME280;5549;47.028;15.514;2023-05-19T04:21:34;97103.94;;;12.73;72.98
10992;BME280;5549;47.028;15.514;2023-05-19T04:24:02;97108.25;;;12.74;72.89
10992;BME280;5549;47.028;15.514;2023-05-19T04:26:33;97115.75;;;12.79;72.63
10992;BME280;5549;47.028;15.514;2023-05-19T04:29:01;97118.13;;;12.82;72.51
10992;BME280;5549;47.028;15.514;2023-05-19T04:31:32;97124.25;;;12.82;72.52
10992;BME280;5549;47.028;15.514;2023-05-19T04:34:01;97128.56;;;12.83;72.38
10992;BME280;5549;47.028;15.514;2023-05-19T04:36:28;97133.56;;;12.87;72.24
10992;BME280;5549;47.028;15.514;2023-05-19T04:38:58;97141.34;;;12.88;71.98
10992;BME280;5549;47.028;15.514;2023-05-19T04:41:32;97142.75;;;12.92;71.65
10992;BME280;5549;47.028;15.514;2023-05-19T04:44:00;97146.38;;;12.91;72.12
10992;BME280;5549;47.028;15.514;2023-05-19T04:46:30;97147.31;;;12.90;72.77
10992;BME280;5549;47.028;15.514;2023-05-19T04:48:57;97148.28;;;12.89;72.58
10992;BME280;5549;47.028;15.514;2023-05-19T04:51:26;97144.81;;;12.89;72.79
10992;BME280;5549;47.028;15.514;2023-05-19T04:53:58;97144.13;;;12.87;72.44
10992;BME280;5549;47.028;15.514;2023-05-19T04:56:26;97153.25;;;12.82;72.89
10992;BME280;5549;47.028;15.514;2023-05-19T04:58:58;97149.91;;;12.80;72.15
10992;BME280;5549;47.028;15.514;2023-05-19T05:01:28;97151.88;;;12.88;71.91
10992;BME280;5549;47.028;15.514;2023-05-19T05:03:58;97153.56;;;12.89;72.14
10992;BME280;5549;47.028;15.514;2023-05-19T05:06:27;97151.06;;;12.88;72.74
10992;BME280;5549;47.028;15.514;2023-05-19T05:08:57;97160.63;;;12.89;72.69
10992;BME280;5549;47.028;15.514;2023-05-19T05:11:25;97172.00;;;12.89;72.49
10992;BME280;5549;47.028;15.514;2023-05-19T05:13:56;97171.31;;;12.87;72.53
10992;BME280;5549;47.028;15.514;2023-05-19T05:16:26;97165.53;;;12.93;72.61
10992;BME280;5549;47.028;15.514;2023-05-19T05:18:56;97162.88;;;12.93;72.82
10992;BME280;5549;47.028;15.514;2023-05-19T05:21:25;97161.47;;;12.89;73.24
10992;BME280;5549;47.028;15.514;2023-05-19T05:23:54;97167.97;;;12.85;73.60
10992;BME280;5549;47.028;15.514;2023-05-19T05:26:22;97174.19;;;12.63;75.94
10992;BME280;5549;47.028;15.514;2023-05-19T05:28:55;97174.84;;;12.44;77.04
10992;BME280;5549;47.028;15.514;2023-05-19T05:31:24;97174.09;;;12.53;77.03
10992;BME280;5549;47.028;15.514;2023-05-19T05:33:54;97175.00;;;12.64;76.24
10992;BME280;5549;47.028;15.514;2023-05-19T05:36:24;97167.75;;;12.77;75.76
10992;BME280;5549;47.028;15.514;2023-05-19T05:38:55;97170.72;;;12.83;75.43
10992;BME280;5549;47.028;15.514;2023-05-19T05:41:26;97171.75;;;12.92;74.78
10992;BME280;5549;47.028;15.514;2023-05-19T05:43:54;97172.06;;;12.99;73.96
10992;BME280;5549;47.028;15.514;2023-05-19T05:46:21;97170.16;;;13.01;74.34
10992;BME280;5549;47.028;15.514;2023-05-19T05:48:51;97176.97;;;13.03;73.79
10992;BME280;5549;47.028;15.514;2023-05-19T05:51:22;97173.63;;;13.01;74.42
10992;BME280;5549;47.028;15.514;2023-05-19T05:53:54;97186.88;;;12.90;75.04
10992;BME280;5549;47.028;15.514;2023-05-19T05:56:23;97182.09;;;12.84;75.58
10992;BME280;5549;47.028;15.514;2023-05-19T05:58:51;97183.53;;;12.88;75.43
10992;BME280;5549;47.028;15.514;2023-05-19T06:01:19;97180.50;;;12.93;75.56
10992;BME280;5549;47.028;15.514;2023-05-19T06:03:50;97184.94;;;12.92;74.60
10992;BME280;5549;47.028;15.514;2023-05-19T06:06:20;97185.19;;;12.89;74.67
10992;BME280;5549;47.028;15.514;2023-05-19T06:08:48;97185.31;;;13.08;74.91
10992;BME280;5549;47.028;15.514;2023-05-19T06:11:15;97184.22;;;13.11;75.22
10992;BME280;5549;47.028;15.514;2023-05-19T06:13:46;97189.59;;;13.21;74.14
10992;BME280;5549;47.028;15.514;2023-05-19T06:16:16;97191.75;;;13.36;73.64
10992;BME280;5549;47.028;15.514;2023-05-19T06:18:44;97191.47;;;13.60;73.32
10992;BME280;5549;47.028;15.514;2023-05-19T06:21:13;97195.78;;;13.92;73.81
10992;BME280;5549;47.028;15.514;2023-05-19T06:23:41;97197.78;;;14.09;71.85
10992;BME280;5549;47.028;15.514;2023-05-19T06:26:11;97193.63;;;14.16;70.25
10992;BME280;5549;47.028;15.514;2023-05-19T06:28:38;97200.19;;;14.31;69.07
10992;BME280;5549;47.028;15.514;2023-05-19T06:31:08;97194.13;;;14.50;67.23
10992;BME280;5549;47.028;15.514;2023-05-19T06:33:35;97191.91;;;14.65;67.60
10992;BME280;5549;47.028;15.514;2023-05-19T06:36:04;97191.50;;;14.89;67.23
10992;BME280;5549;47.028;15.514;2023-05-19T06:38:35;97185.34;;;15.07;66.41
10992;BME280;5549;47.028;15.514;2023-05-19T06:41:05;97192.00;;;15.21;65.59
10992;BME280;5549;47.028;15.514;2023-05-19T06:43:33;97192.59;;;15.05;63.36
10992;BME280;5549;47.028;15.514;2023-05-19T06:46:00;97188.81;;;15.18;62.55
10992;BME280;5549;47.028;15.514;2023-05-19T06:48:30;97193.09;;;15.28;62.51
10992;BME280;5549;47.028;15.514;2023-05-19T06:51:00;97194.88;;;15.47;62.91
10992;BME280;5549;47.028;15.514;2023-05-19T06:53:30;97187.75;;;15.48;62.21
10992;BME280;5549;47.028;15.514;2023-05-19T06:55:59;97192.22;;;15.66;61.93
10992;BME280;5549;47.028;15.514;2023-05-19T06:58:26;97190.78;;;15.82;62.09
10992;BME280;5549;47.028;15.514;2023-05-19T07:00:56;97186.34;;;16.00;62.88
10992;BME280;5549;47.028;15.514;2023-05-19T07:03:24;97190.91;;;16.08;62.00
10992;BME280;5549;47.028;15.514;2023-05-19T07:05:54;97189.88;;;16.18;62.95
10992;BME280;5549;47.028;15.514;2023-05-19T07:08:24;97196.97;;;16.00;62.14
10992;BME280;5549;47.028;15.514;2023-05-19T07:10:55;97195.56;;;16.23;62.23
10992;BME280;5549;47.028;15.514;2023-05-19T07:13:24;97190.97;;;16.25;61.43
10992;BME280;5549;47.028;15.514;2023-05-19T07:15:51;97191.91;;;16.07;61.82
10992;BME280;5549;47.028;15.514;2023-05-19T07:18:23;97185.91;;;16.04;62.14
10992;BME280;5549;47.028;15.514;2023-05-19T07:20:53;97190.41;;;16.22;60.82
10992;BME280;5549;47.028;15.514;2023-05-19T07:23:23;97188.84;;;16.29;60.89
10992;BME280;5549;47.028;15.514;2023-05-19T07:25:53;97189.16;;;16.26;60.73
10992;BME280;5549;47.028;15.514;2023-05-19T07:28:23;97185.97;;;15.95;62.13
10992;BME280;5549;47.028;15.514;2023-05-19T07:30:51;97183.63;;;15.92;60.79
10992;BME280;5549;47.028;15.514;2023-05-19T07:33:18;97178.41;;;15.53;64.45
10992;BME280;5549;47.028;15.514;2023-05-19T07:35:46;97178.22;;;15.84;62.97
10992;BME280;5549;47.028;15.514;2023-05-19T07:38:14;97172.47;;;15.61;64.34
10992;BME280;5549;47.028;15.514;2023-05-19T07:40:44;97175.28;;;15.87;63.94
10992;BME280;5549;47.028;15.514;2023-05-19T07:43:11;97172.91;;;15.84;62.00
10992;BME280;5549;47.028;15.514;2023-05-19T07:45:40;97171.72;;;15.68;60.43
10992;BME280;5549;47.028;15.514;2023-05-19T07:48:08;97174.59;;;15.85;60.95
10992;BME280;5549;47.028;15.514;2023-05-19T07:50:38;97162.28;;;15.93;61.76
10992;BME280;5549;47.028;15.514;2023-05-19T07:53:08;97165.75;;;15.94;62.49
10992;BME280;5549;47.028;15.514;2023-05-19T07:55:38;97172.53;;;16.06;61.50
10992;BME280;5549;47.028;15.514;2023-05-19T07:58:06;97167.91;;;15.81;61.81
10992;BME280;5549;47.028;15.514;2023-05-19T08:00:36;97165.44;;;16.24;61.53
10992;BME280;5549;47.028;15.514;2023-05-19T08:03:07;97162.88;;;16.32;60.36
10992;BME280;5549;47.028;15.514;2023-05-19T08:05:35;97160.53;;;16.47;60.35
10992;BME280;5549;47.028;15.514;2023-05-19T08:08:05;97164.41;;;16.53;60.58
10992;BME280;5549;47.028;15.514;2023-05-19T08:10:33;97169.31;;;16.30;61.44
10992;BME280;5549;47.028;15.514;2023-05-19T08:13:03;97161.00;;;16.60;61.55
10992;BME280;5549;47.028;15.514;2023-05-19T08:15:33;97157.31;;;16.71;60.28
10992;BME280;5549;47.028;15.514;2023-05-19T08:18:00;97167.31;;;16.77;59.44
10992;BME280;5549;47.028;15.514;2023-05-19T08:20:31;97161.69;;;16.98;59.88
10992;BME280;5549;47.028;15.514;2023-05-19T08:22:59;97162.16;;;17.19;60.67
10992;BME280;5549;47.028;15.514;2023-05-19T08:25:26;97163.72;;;17.30;59.91
10992;BME280;5549;47.028;15.514;2023-05-19T08:27:54;97174.28;;;17.40;58.74
10992;BME280;5549;47.028;15.514;2023-05-19T08:30:25;97167.47;;;17.37;55.50
10992;BME280;5549;47.028;15.514;2023-05-19T08:32:54;97167.31;;;17.21;57.18
10992;BME280;5549;47.028;15.514;2023-05-19T08:35:22;97169.50;;;17.25;56.45
10992;BME280;5549;47.028;15.514;2023-05-19T08:37:51;97157.63;;;17.12;56.30
10992;BME280;5549;47.028;15.514;2023-05-19T08:40:19;97162.25;;;17.10;55.66
10992;BME280;5549;47.028;15.514;2023-05-19T08:42:49;97158.56;;;17.03;55.85
10992;BME280;5549;47.028;15.514;2023-05-19T08:45:17;97161.47;;;16.91;56.44
10992;BME280;5549;47.028;15.514;2023-05-19T08:47:45;97163.66;;;16.78;58.05
10992;BME280;5549;47.028;15.514;2023-05-19T08:50:20;97161.03;;;16.78;58.07
10992;BME280;5549;47.028;15.514;2023-05-19T08:52:59;97148.63;;;17.05;59.24
10992;BME280;5549;47.028;15.514;2023-05-19T08:55:34;97156.53;;;16.96;59.19
10992;BME280;5549;47.028;15.514;2023-05-19T08:58:04;97143.63;;;17.02;56.86
10992;BME280;5549;47.028;15.514;2023-05-19T09:00:33;97145.00;;;17.06;55.79
10992;BME280;5549;47.028;15.514;2023-05-19T09:03:01;97147.16;;;16.84;57.12
10992;BME280;5549;47.028;15.514;2023-05-19T09:05:31;97149.97;;;17.09;57.50
10992;BME280;5549;47.028;15.514;2023-05-19T09:08:01;97153.00;;;17.14;55.17
10992;BME280;5549;47.028;15.514;2023-05-19T09:10:30;97149.00;;;17.10;56.52
10992;BME280;5549;47.028;15.514;2023-05-19T09:12:57;97155.72;;;17.22;55.78
10992;BME280;5549;47.028;15.514;2023-05-19T09:15:26;97149.88;;;17.18;56.19
10992;BME280;5549;47.028;15.514;2023-05-19T09:18:05;97152.06;;;17.23;57.05
10992;BME280;5549;47.028;15.514;2023-05-19T09:20:37;97153.00;;;17.14;57.84
10992;BME280;5549;47.028;15.514;2023-05-19T09:23:11;97157.63;;;17.12;57.72
10992;BME280;5549;47.028;15.514;2023-05-19T09:25:46;97155.41;;;16.81;57.90
10992;BME280;5549;47.028;15.514;2023-05-19T09:28:23;97156.44;;;17.06;56.97
10992;BME280;5549;47.028;15.514;2023-05-19T09:30:59;97155.59;;;17.06;56.41
10992;BME280;5549;47.028;15.514;2023-05-19T09:33:27;97153.19;;;16.94;57.62
10992;BME280;5549;47.028;15.514;2023-05-19T09:35:57;97150.41;;;16.78;57.88
10992;BME280;5549;47.028;15.514;2023-05-19T09:38:26;97157.06;;;16.82;57.34
10992;BME280;5549;47.028;15.514;2023-05-19T09:40:56;97154.78;;;16.87;58.53
10992;BME280;5549;47.028;15.514;2023-05-19T09:43:26;97147.06;;;16.76;57.43
10992;BME280;5549;47.028;15.514;2023-05-19T09:45:58;97141.63;;;16.78;57.44
10992;BME280;5549;47.028;15.514;2023-05-19T09:48:27;97149.66;;;16.86;56.57
10992;BME280;5549;47.028;15.514;2023-05-19T09:50:55;97138.63;;;16.98;57.98
10992;BME280;5549;47.028;15.514;2023-05-19T09:53:29;97145.47;;;16.83;58.67
10992;BME280;5549;47.028;15.514;2023-05-19T09:55:57;97137.34;;;17.03;58.23
10992;BME280;5549;47.028;15.514;2023-05-19T09:58:31;97134.72;;;16.85;59.74
10992;BME280;5549;47.028;15.514;2023-05-19T10:01:03;97134.53;;;17.30;58.54
10992;BME280;5549;47.028;15.514;2023-05-19T10:03:32;97142.94;;;17.43;55.68
10992;BME280;5549;47.028;15.514;2023-05-19T10:06:00;97136.28;;;17.39;54.85
10992;BME280;5549;47.028;15.514;2023-05-19T10:08:33;97135.13;;;17.42;58.07
10992;BME280;5549;47.028;15.514;2023-05-19T10:11:01;97139.38;;;17.09;57.59
10992;BME280;5549;47.028;15.514;2023-05-19T10:13:30;97138.81;;;17.49;57.30
10992;BME280;5549;47.028;15.514;2023-05-19T10:16:00;97133.75;;;17.63;55.76
10992;BME280;5549;47.028;15.514;2023-05-19T10:18:30;97133.47;;;17.67;55.93
10992;BME280;5549;47.028;15.514;2023-05-19T10:21:02;97133.19;;;17.78;58.32
10992;BME280;5549;47.028;15.514;2023-05-19T10:23:31;97139.00;;;17.81;58.22
10992;BME280;5549;47.028;15.514;2023-05-19T10:25:59;97137.53;;;17.87;57.64
10992;BME280;5549;47.028;15.514;2023-05-19T10:28:36;97134.69;;;17.80;56.23
10992;BME280;5549;47.028;15.514;2023-05-19T10:31:08;97130.44;;;18.04;54.95
10992;BME280;5549;47.028;15.514;2023-05-19T10:33:51;97127.31;;;18.08;56.71
10992;BME280;5549;47.028;15.514;2023-05-19T10:36:39;97129.47;;;18.13;55.58
10992;BME280;5549;47.028;15.514;2023-05-19T10:39:16;97134.13;;;17.69;57.17
10992;BME280;5549;47.028;15.514;2023-05-19T10:41:59;97133.31;;;18.18;54.78
10992;BME280;5549;47.028;15.514;2023-05-19T10:44:43;97133.81;;;18.22;52.99
10992;BME280;5549;47.028;15.514;2023-05-19T10:47:12;97131.22;;;18.46;54.08
10992;BME280;5549;47.028;15.514;2023-05-19T10:49:40;97135.84;;;18.36;53.91
10992;BME280;5549;47.028;15.514;2023-05-19T10:52:19;97128.22;;;18.57;53.39
10992;BME280;5549;47.028;15.514;2023-05-19T10:54:52;97128.56;;;18.54;54.03
10992;BME280;5549;47.028;15.514;2023-05-19T10:57:25;97136.47;;;18.14;55.25
10992;BME280;5549;47.028;15.514;2023-05-19T10:59:58;97131.69;;;18.34;52.24
10992;BME280;5549;47.028;15.514;2023-05-19T11:02:40;97129.72;;;18.44;52.08
10992;BME280;5549;47.028;15.514;2023-05-19T11:05:12;97121.72;;;18.44;54.93
10992;BME280;5549;47.028;15.514;2023-05-19T11:07:41;97118.22;;;18.35;53.61
10992;BME280;5549;47.028;15.514;2023-05-19T11:10:12;97111.81;;;18.62;55.02
10992;BME280;5549;47.028;15.514;2023-05-19T11:12:41;97116.75;;;18.57;54.31
10992;BME280;5549;47.028;15.514;2023-05-19T11:15:14;97112.31;;;18.82;54.56
10992;BME280;5549;47.028;15.514;2023-05-19T11:17:44;97112.31;;;18.66;54.12
10992;BME280;5549;47.028;15.514;2023-05-19T11:20:21;97105.97;;;18.99;54.73
10992;BME280;5549;47.028;15.514;2023-05-19T11:23:05;97103.81;;;18.95;54.65
10992;BME280;5549;47.028;15.514;2023-05-19T11:25:46;97107.16;;;19.13;52.19
10992;BME280;5549;47.028;15.514;2023-05-19T11:28:17;97108.13;;;19.04;52.45
10992;BME280;5549;47.028;15.514;2023-05-19T11:30:48;97110.81;;;19.12;52.48
10992;BME280;5549;47.028;15.514;2023-05-19T11:33:17;97107.31;;;19.19;52.28
10992;BME280;5549;47.028;15.514;2023-05-19T11:35:49;97106.94;;;19.39;51.81
10992;BME280;5549;47.028;15.514;2023-05-19T11:38:20;97100.47;;;19.25;51.25
10992;BME280;5549;47.028;15.514;2023-05-19T11:40:54;97096.75;;;19.59;49.67
10992;BME280;5549;47.028;15.514;2023-05-19T11:43:22;97093.66;;;19.78;52.19
10992;BME280;5549;47.028;15.514;2023-05-19T11:45:51;97098.75;;;19.96;51.79
10992;BME280;5549;47.028;15.514;2023-05-19T11:48:20;97102.38;;;20.03;50.34
10992;BME280;5549;47.028;15.514;2023-05-19T11:50:50;97098.53;;;20.05;50.31
10992;BME280;5549;47.028;15.514;2023-05-19T11:53:21;97096.13;;;19.88;50.43
10992;BME280;5549;47.028;15.514;2023-05-19T11:55:49;97098.91;;;19.47;49.77
10992;BME280;5549;47.028;15.514;2023-05-19T11:58:24;97091.34;;;19.75;49.14
10992;BME280;5549;47.028;15.514;2023-05-19T12:00:55;97084.56;;;19.64;48.10
10992;BME280;5549;47.028;15.514;2023-05-19T12:03:25;97090.09;;;19.46;50.14
10992;BME280;5549;47.028;15.514;2023-05-19T12:05:56;97092.75;;;19.54;51.06
10992;BME280;5549;47.028;15.514;2023-05-19T12:08:26;97091.34;;;19.75;49.30
10992;BME280;5549;47.028;15.514;2023-05-19T12:10:56;97097.38;;;19.69;50.39
10992;BME280;5549;47.028;15.514;2023-05-19T12:13:25;97094.97;;;19.82;50.83
10992;BME280;5549;47.028;15.514;2023-05-19T12:15:53;97086.72;;;19.69;52.11
10992;BME280;5549;47.028;15.514;2023-05-19T12:18:21;97091.16;;;18.97;52.87
10992;BME280;5549;47.028;15.514;2023-05-19T12:20:51;97092.13;;;19.36;50.91
10992;BME280;5549;47.028;15.514;2023-05-19T12:23:20;97085.72;;;19.70;49.55
10992;BME280;5549;47.028;15.514;2023-05-19T12:25:52;97079.69;;;19.76;49.52
10992;BME280;5549;47.028;15.514;2023-05-19T12:28:20;97083.13;;;20.15;52.43
10992;BME280;5549;47.028;15.514;2023-05-19T12:30:52;97087.06;;;20.28;49.16
10992;BME280;5549;47.028;15.514;2023-05-19T12:33:20;97077.69;;;20.09;48.84
10992;BME280;5549;47.028;15.514;2023-05-19T12:35:53;97075.44;;;20.21;51.60
10992;BME280;5549;47.028;15.514;2023-05-19T12:38:23;97082.94;;;19.94;48.73
10992;BME280;5549;47.028;15.514;2023-05-19T12:40:52;97081.13;;;19.86;48.00
10992;BME280;5549;47.028;15.514;2023-05-19T12:43:24;97074.06;;;20.02;48.43
10992;BME280;5549;47.028;15.514;2023-05-19T12:45:55;97067.03;;;20.32;48.69
10992;BME280;5549;47.028;15.514;2023-05-19T12:48:25;97062.88;;;20.29;47.83
10992;BME280;5549;47.028;15.514;2023-05-19T12:50:56;97069.09;;;20.22;48.56
10992;BME280;5549;47.028;15.514;2023-05-19T12:53:26;97065.66;;;20.13;49.88
10992;BME280;5549;47.028;15.514;2023-05-19T12:55:55;97059.59;;;20.50;47.58
10992;BME280;5549;47.028;15.514;2023-05-19T12:58:25;97067.44;;;20.21;50.49
10992;BME280;5549;47.028;15.514;2023-05-19T13:00:58;97058.16;;;20.62;46.80
10992;BME280;5549;47.028;15.514;2023-05-19T13:03:26;97070.09;;;20.21;49.22
10992;BME280;5549;47.028;15.514;2023-05-19T13:05:56;97068.63;;;20.18;48.87
10992;BME280;5549;47.028;15.514;2023-05-19T13:08:26;97064.66;;;20.37;47.78
10992;BME280;5549;47.028;15.514;2023-05-19T13:10:54;97061.34;;;20.35;47.95
10992;BME280;5549;47.028;15.514;2023-05-19T13:13:22;97050.69;;;20.58;46.85
10992;BME280;5549;47.028;15.514;2023-05-19T13:15:49;97052.66;;;20.41;47.91
10992;BME280;5549;47.028;15.514;2023-05-19T13:18:20;97050.00;;;20.41;49.37